Waterford, Mississippi
Current Conditions -  °F | °C
As of 5:15 AM on Wednesday 26 Nov 2014 (Local Time) from KUOX Reporting Station
Clear Clear  
Wind Chill: -3°   Ceiling: Unl
Heat Index: -3°   Visibility: 9mi
Dew Point: -4°   Wind: 0mph
Humidity: 93%   Direction: NA
Pressure: 30.16"   Gusts: NA
Location:  34.65°N, 89.46°W
Report Text: KUOX 261115Z AUTO 00000KT 9SM CLR M03/M04 A3016 RMK AO2 PWINO PNO
Loading
Personal Weather Stations






























Interactive Weather Map New forecast layout! Learn more

10-Day Weather Forecast

Advertisements
Track Severe Weather on mobile